LFML 181730Z AUTO 31014KT CAVOK 26/15 Q1009 TEMPO VRB15G25KT 4000 -TSRA SCT050CB

ElémentsDécodage
LFML Station météo située sur l'aérodrome de MARSEILLE PROVENCE
181730Z émis le 18 du mois à 17h30 UTC
AUTO Bulletin édité par un automate
31014KT vent du 310°, 14 noeuds
CAVOK Ceiling And Visibility OK
- Visibilité de 10 Km ou plus
- Pas de nuage au-dessous de 1500m ou au-dessous de l'altitude minimale du secteur la plus élevée (si>1500m) et absence de CB
- pas de temps présent significatif
26/15 température 26°C, point de rosée 15°C
 soit une humidité relative de 51%
Q1009 la pression au niveau de la mer (QNH) est de 1009 hPa
TEMPO fluctuation temporaire prévue
VRB15G25KT vent de direction variable, moyenne: 15 noeuds, avec rafales à 25 noeuds
4000 visibilité horizontale de 4000 mètres
-TSRA faible pluie d'orage
SCT050CB nuages épars (3/8 à 4/8) à 5000 pieds
 présence de cumulonimbus